createdAt,value
2022-09-15T00:00:18.292Z,14.63
2022-09-15T00:02:48.802Z,14.61
2022-09-15T00:05:19.221Z,14.60
2022-09-15T00:07:49.645Z,14.57
2022-09-15T00:10:19.993Z,14.54
2022-09-15T00:12:50.465Z,14.54
2022-09-15T00:15:20.856Z,14.55
2022-09-15T00:17:51.334Z,14.56
2022-09-15T00:20:21.719Z,14.54
2022-09-15T00:22:52.165Z,14.54
2022-09-15T00:25:22.582Z,14.55
2022-09-15T00:27:53.032Z,14.56
2022-09-15T00:30:23.432Z,14.58
2022-09-15T00:32:53.899Z,14.52
2022-09-15T00:35:24.277Z,14.55
2022-09-15T00:37:54.767Z,14.55
2022-09-15T00:40:25.292Z,14.56
2022-09-15T00:42:55.635Z,14.61
2022-09-15T00:45:26.037Z,14.63
2022-09-15T00:47:56.505Z,14.68
2022-09-15T00:50:26.819Z,14.74
2022-09-15T00:52:57.259Z,14.75
2022-09-15T00:55:27.647Z,14.71
2022-09-15T00:57:58.098Z,14.71
2022-09-15T01:00:28.501Z,14.67
2022-09-15T01:02:59.073Z,14.66
2022-09-15T01:05:29.477Z,14.69
2022-09-15T01:07:59.893Z,14.68
2022-09-15T01:10:30.202Z,14.65
2022-09-15T01:13:00.751Z,14.62
2022-09-15T01:15:31.043Z,14.62
2022-09-15T01:18:01.502Z,14.65
2022-09-15T01:20:31.865Z,14.62
2022-09-15T01:23:02.299Z,14.54
2022-09-15T01:25:32.691Z,14.55
2022-09-15T01:28:03.214Z,14.59
2022-09-15T01:30:33.587Z,14.63
2022-09-15T01:33:03.985Z,14.67
2022-09-15T01:35:34.310Z,14.65
2022-09-15T01:38:04.731Z,14.66
2022-09-15T01:40:35.137Z,14.72
2022-09-15T01:43:05.541Z,14.76
2022-09-15T01:45:35.981Z,14.76
2022-09-15T01:48:06.362Z,14.78
2022-09-15T01:50:36.724Z,14.78
2022-09-15T01:53:07.142Z,14.78
2022-09-15T01:55:37.547Z,14.76
2022-09-15T01:58:07.971Z,14.73
2022-09-15T02:00:38.376Z,14.66
2022-09-15T02:03:08.844Z,14.74
2022-09-15T02:05:39.220Z,14.70
2022-09-15T02:08:09.649Z,14.69
2022-09-15T02:10:40.058Z,14.67
2022-09-15T02:13:10.503Z,14.53
2022-09-15T02:15:41.017Z,14.37
2022-09-15T02:18:11.368Z,14.39
2022-09-15T02:20:41.759Z,14.32
2022-09-15T02:23:12.289Z,14.35
2022-09-15T02:25:42.730Z,14.41
2022-09-15T02:28:13.060Z,14.46
2022-09-15T02:30:43.165Z,14.48
2022-09-15T02:33:13.724Z,14.42
2022-09-15T02:35:44.043Z,14.38
2022-09-15T02:38:14.454Z,14.31
2022-09-15T02:40:44.641Z,14.32
2022-09-15T02:43:15.084Z,14.22
2022-09-15T02:45:45.557Z,14.20
2022-09-15T02:48:16.072Z,14.27
2022-09-15T02:50:46.413Z,14.35
2022-09-15T02:53:16.828Z,14.39
2022-09-15T02:55:47.021Z,14.44
2022-09-15T02:58:17.442Z,14.51
2022-09-15T03:00:47.943Z,14.58
2022-09-15T03:03:18.339Z,14.63
2022-09-15T03:05:48.772Z,14.71
2022-09-15T03:08:19.173Z,14.81
2022-09-15T03:10:49.614Z,14.88
2022-09-15T03:13:20.004Z,14.96
2022-09-15T03:15:50.481Z,15.00
2022-09-15T03:18:20.827Z,15.04
2022-09-15T03:20:51.273Z,15.09
2022-09-15T03:23:21.662Z,15.12
2022-09-15T03:25:52.076Z,15.18
2022-09-15T03:28:22.457Z,15.18
2022-09-15T03:30:52.908Z,15.18
2022-09-15T03:33:23.327Z,15.19
2022-09-15T03:35:53.706Z,15.16
2022-09-15T03:38:23.763Z,15.06
2022-09-15T03:40:54.189Z,15.03
2022-09-15T03:43:24.568Z,15.02
2022-09-15T03:45:55.131Z,15.03
2022-09-15T03:48:25.498Z,15.02
2022-09-15T03:50:55.918Z,14.99
2022-09-15T03:53:26.252Z,14.94
2022-09-15T03:55:56.761Z,14.87
2022-09-15T03:58:30.637Z,14.86
2022-09-15T04:00:57.870Z,14.90
2022-09-15T04:03:28.162Z,14.85
2022-09-15T04:05:58.916Z,14.81
2022-09-15T04:08:29.049Z,14.72
2022-09-15T04:10:59.498Z,14.71
2022-09-15T04:13:29.905Z,14.69
2022-09-15T04:16:00.451Z,14.69
2022-09-15T04:18:30.408Z,14.66
2022-09-15T04:21:00.840Z,14.65
2022-09-15T04:23:31.255Z,14.63
2022-09-15T04:26:01.810Z,14.70
2022-09-15T04:28:32.129Z,14.79
2022-09-15T04:31:02.696Z,14.79
2022-09-15T04:33:32.975Z,14.85
2022-09-15T04:36:03.417Z,14.84
2022-09-15T04:38:33.539Z,14.86
2022-09-15T04:41:03.988Z,14.87
2022-09-15T04:43:34.401Z,14.79
2022-09-15T04:46:04.841Z,14.77
2022-09-15T04:48:35.225Z,14.73
2022-09-15T04:51:05.657Z,14.73
2022-09-15T04:53:36.053Z,14.72
2022-09-15T04:56:06.477Z,14.66
2022-09-15T04:58:36.856Z,14.70
2022-09-15T05:01:07.376Z,14.73
2022-09-15T05:03:37.669Z,14.80
2022-09-15T05:06:08.097Z,14.80
2022-09-15T05:08:38.480Z,14.83
2022-09-15T05:11:08.903Z,14.87
2022-09-15T05:13:39.276Z,14.97
2022-09-15T05:16:09.786Z,14.91
2022-09-15T05:18:40.095Z,14.93
2022-09-15T05:21:10.507Z,14.97
2022-09-15T05:23:40.946Z,14.91
2022-09-15T05:26:11.269Z,14.92
2022-09-15T05:28:41.639Z,14.87
2022-09-15T05:31:12.112Z,14.88
2022-09-15T05:33:42.375Z,14.85
2022-09-15T05:36:12.793Z,14.79
2022-09-15T05:38:43.132Z,14.83
2022-09-15T05:41:13.561Z,14.89
2022-09-15T05:43:43.930Z,14.95
2022-09-15T05:46:14.399Z,14.98
2022-09-15T05:48:44.710Z,14.99
2022-09-15T05:51:15.171Z,14.98
2022-09-15T05:53:45.481Z,14.99
2022-09-15T05:56:15.609Z,14.97
2022-09-15T05:58:45.973Z,14.94
2022-09-15T06:01:16.421Z,14.93
2022-09-15T06:03:46.772Z,14.97
2022-09-15T06:06:17.181Z,14.99
2022-09-15T06:08:48.377Z,14.93
2022-09-15T06:11:18.085Z,14.90
2022-09-15T06:13:48.368Z,14.92
2022-09-15T06:16:18.900Z,14.92
2022-09-15T06:18:49.181Z,14.96
2022-09-15T06:21:19.595Z,14.98
2022-09-15T06:23:50.819Z,14.98
2022-09-15T06:26:20.363Z,15.02
2022-09-15T06:28:50.708Z,14.98
2022-09-15T06:31:21.230Z,14.94
2022-09-15T06:33:51.675Z,14.91
2022-09-15T06:36:21.899Z,14.90
2022-09-15T06:38:52.470Z,14.91
2022-09-15T06:41:22.685Z,14.90
2022-09-15T06:43:53.378Z,14.88
2022-09-15T06:46:23.619Z,14.90
2022-09-15T06:48:53.825Z,14.93
2022-09-15T06:51:24.311Z,15.00
2022-09-15T06:53:54.602Z,14.99
2022-09-15T06:56:25.011Z,14.95
2022-09-15T06:58:55.374Z,15.01
2022-09-15T07:01:25.794Z,15.08
2022-09-15T07:03:56.133Z,15.05
2022-09-15T07:06:26.529Z,15.04
2022-09-15T07:08:56.888Z,15.13
2022-09-15T07:11:27.291Z,15.15
2022-09-15T07:13:57.658Z,15.24
2022-09-15T07:16:28.203Z,15.34
2022-09-15T07:18:58.394Z,15.22
2022-09-15T07:21:28.795Z,15.28
2022-09-15T07:24:02.517Z,15.34
2022-09-15T07:26:29.517Z,15.39
2022-09-15T07:28:59.856Z,15.39
2022-09-15T07:31:30.340Z,15.36
2022-09-15T07:34:00.603Z,15.41
2022-09-15T07:36:31.073Z,15.35
2022-09-15T07:39:01.393Z,15.46
2022-09-15T07:41:31.736Z,15.56
2022-09-15T07:44:02.099Z,15.61
2022-09-15T07:46:32.535Z,15.60
2022-09-15T07:49:02.836Z,15.70
2022-09-15T07:51:33.219Z,15.72
2022-09-15T07:54:03.545Z,15.73
2022-09-15T07:56:33.940Z,15.71
2022-09-15T07:59:04.288Z,15.71
2022-09-15T08:01:34.766Z,15.80
2022-09-15T08:04:05.128Z,15.81
2022-09-15T08:06:35.405Z,15.87
2022-09-15T08:09:05.760Z,15.88
2022-09-15T08:11:36.175Z,15.91
2022-09-15T08:14:06.493Z,15.90
2022-09-15T08:16:36.920Z,15.90
2022-09-15T08:19:07.211Z,15.99
2022-09-15T08:21:37.571Z,15.98
2022-09-15T08:24:07.897Z,16.07
2022-09-15T08:26:38.340Z,16.05
2022-09-15T08:29:08.599Z,16.20
2022-09-15T08:31:39.076Z,16.12
2022-09-15T08:34:09.297Z,16.05
2022-09-15T08:36:39.734Z,16.25
2022-09-15T08:39:09.984Z,16.15
2022-09-15T08:41:40.349Z,16.13
2022-09-15T08:44:10.667Z,16.10
2022-09-15T08:46:41.269Z,16.23
2022-09-15T08:49:11.356Z,16.18
2022-09-15T08:51:41.771Z,16.18
2022-09-15T08:54:12.045Z,16.29
2022-09-15T08:56:42.407Z,16.23
2022-09-15T08:59:12.740Z,16.36
2022-09-15T09:01:43.178Z,16.37
2022-09-15T09:04:17.539Z,16.35
2022-09-15T09:06:43.862Z,16.31
2022-09-15T09:09:14.103Z,16.31
2022-09-15T09:11:44.505Z,16.35
2022-09-15T09:14:14.806Z,16.32
2022-09-15T09:16:45.149Z,16.32
2022-09-15T09:19:15.437Z,16.27
2022-09-15T09:21:45.781Z,16.28
2022-09-15T09:24:16.098Z,16.31
2022-09-15T09:26:46.476Z,16.47
2022-09-15T09:29:16.738Z,16.52
2022-09-15T09:31:47.109Z,16.65
2022-09-15T09:34:17.399Z,16.77
2022-09-15T09:36:47.738Z,16.94
2022-09-15T09:39:20.109Z,16.92
2022-09-15T09:41:48.387Z,16.92
2022-09-15T09:44:18.693Z,16.94
2022-09-15T09:46:49.055Z,16.88
2022-09-15T09:49:19.322Z,16.95
2022-09-15T09:51:49.669Z,17.03
2022-09-15T09:54:19.970Z,17.12
2022-09-15T09:56:50.310Z,17.17
2022-09-15T09:59:20.601Z,17.34
2022-09-15T10:01:51.024Z,17.29
2022-09-15T10:04:21.325Z,17.16
2022-09-15T10:06:51.554Z,17.44
2022-09-15T10:09:21.835Z,17.41
2022-09-15T10:11:52.179Z,17.51
2022-09-15T10:14:22.471Z,17.58
2022-09-15T10:16:52.882Z,17.45
2022-09-15T10:19:23.064Z,17.48
2022-09-15T10:21:53.405Z,17.32
2022-09-15T10:24:23.683Z,17.49
2022-09-15T10:26:53.997Z,17.70
2022-09-15T10:29:24.274Z,17.58
2022-09-15T10:31:54.659Z,17.61
2022-09-15T10:34:24.865Z,17.80
2022-09-15T10:36:55.171Z,17.81
2022-09-15T10:39:25.467Z,17.84
2022-09-15T10:41:55.800Z,17.93
2022-09-15T10:44:26.196Z,17.88
2022-09-15T10:46:56.444Z,17.92
2022-09-15T10:49:26.704Z,18.03
2022-09-15T10:51:57.039Z,18.03
2022-09-15T10:54:27.338Z,18.16
2022-09-15T10:56:57.659Z,18.29
2022-09-15T10:59:27.936Z,18.31
2022-09-15T11:01:58.382Z,18.20
2022-09-15T11:04:28.550Z,18.07
2022-09-15T11:06:58.876Z,17.99
2022-09-15T11:09:29.144Z,17.98
2022-09-15T11:11:59.567Z,17.91
2022-09-15T11:14:29.750Z,17.95
2022-09-15T11:17:00.117Z,18.05
2022-09-15T11:19:30.489Z,17.97
2022-09-15T11:22:00.753Z,18.08
2022-09-15T11:24:31.001Z,18.01
2022-09-15T11:27:01.348Z,18.07
2022-09-15T11:29:31.638Z,17.97
2022-09-15T11:34:32.269Z,18.01
2022-09-15T11:37:02.531Z,17.86
2022-09-15T11:39:32.807Z,17.82
2022-09-15T11:42:03.133Z,17.82
2022-09-15T11:44:33.399Z,17.83
2022-09-15T11:47:04.263Z,17.88
2022-09-15T11:49:34.015Z,17.80
2022-09-15T11:52:04.335Z,17.59
2022-09-15T11:54:34.668Z,17.55
2022-09-15T11:57:04.943Z,17.41
2022-09-15T11:59:35.220Z,17.41
2022-09-15T12:02:05.633Z,17.48
2022-09-15T12:04:35.836Z,17.51
2022-09-15T12:07:08.786Z,17.37
2022-09-15T12:09:36.487Z,17.55
2022-09-15T12:12:06.808Z,17.48
2022-09-15T12:14:37.091Z,17.24
2022-09-15T12:17:07.455Z,17.13
2022-09-15T12:19:37.738Z,17.15
2022-09-15T12:22:08.068Z,17.14
2022-09-15T12:24:38.358Z,16.95
2022-09-15T12:27:08.713Z,17.03
2022-09-15T12:29:41.793Z,16.93
2022-09-15T12:32:09.367Z,16.88
2022-09-15T12:34:39.664Z,16.60
2022-09-15T12:37:10.015Z,16.66
2022-09-15T12:39:40.420Z,16.86
2022-09-15T12:42:10.682Z,16.88
2022-09-15T12:44:40.981Z,16.93
2022-09-15T12:47:11.341Z,16.97
2022-09-15T12:49:41.638Z,17.01
2022-09-15T12:52:11.976Z,16.70
2022-09-15T12:54:42.281Z,16.87
2022-09-15T12:57:12.628Z,16.89
2022-09-15T12:59:43.011Z,16.82
2022-09-15T13:02:13.498Z,16.92
2022-09-15T13:04:43.598Z,16.82
2022-09-15T13:07:13.946Z,16.87
2022-09-15T13:09:44.254Z,16.89
2022-09-15T13:12:14.607Z,16.74
2022-09-15T13:14:44.908Z,16.82
2022-09-15T13:17:15.285Z,16.94
2022-09-15T13:19:45.572Z,16.97
2022-09-15T13:22:15.915Z,17.00
2022-09-15T13:24:46.536Z,17.00
2022-09-15T13:27:16.552Z,17.10
2022-09-15T13:29:46.865Z,17.20
2022-09-15T13:32:17.206Z,17.37
2022-09-15T13:35:09.736Z,17.47
2022-09-15T13:39:48.159Z,17.58
2022-09-15T13:42:18.506Z,17.67
2022-09-15T13:44:48.696Z,17.61
2022-09-15T13:47:19.134Z,17.36
2022-09-15T13:49:49.321Z,17.54
2022-09-15T13:52:19.638Z,17.39
2022-09-15T13:54:49.942Z,17.56
2022-09-15T13:58:55.009Z,17.56
2022-09-15T13:59:50.605Z,17.67
2022-09-15T14:02:21.241Z,17.92
2022-09-15T14:04:51.226Z,18.00
2022-09-15T14:07:21.576Z,18.14
2022-09-15T14:09:51.886Z,18.08
2022-09-15T14:12:22.201Z,18.12
2022-09-15T14:14:52.493Z,17.81
2022-09-15T14:17:22.841Z,17.78
2022-09-15T14:19:53.223Z,17.84
2022-09-15T14:22:23.475Z,17.93
2022-09-15T14:24:53.865Z,17.81
2022-09-15T14:27:24.116Z,17.87
2022-09-15T14:29:54.495Z,17.69
2022-09-15T14:32:24.860Z,17.54
2022-09-15T14:34:55.073Z,17.38
2022-09-15T14:37:25.422Z,17.34
2022-09-15T14:39:55.813Z,17.33
2022-09-15T14:42:26.126Z,16.83
2022-09-15T14:47:26.859Z,16.57
2022-09-15T14:49:57.169Z,16.38
2022-09-15T14:52:27.544Z,16.38
2022-09-15T14:54:57.871Z,16.38
2022-09-15T14:57:31.020Z,16.41
2022-09-15T14:59:58.496Z,16.40
2022-09-15T15:02:28.973Z,16.40
2022-09-15T15:04:59.266Z,16.33
2022-09-15T15:07:29.559Z,16.21
2022-09-15T15:09:59.890Z,16.25
2022-09-15T15:12:30.265Z,16.16
2022-09-15T15:15:00.669Z,16.13
2022-09-15T15:17:31.016Z,16.20
2022-09-15T15:20:01.427Z,16.18
2022-09-15T15:22:31.689Z,16.24
2022-09-15T15:25:02.024Z,16.24
2022-09-15T15:27:32.404Z,16.18
2022-09-15T15:30:02.729Z,16.28
2022-09-15T15:32:33.124Z,16.29
2022-09-15T15:35:03.427Z,16.27
2022-09-15T15:37:33.789Z,16.15
2022-09-15T15:40:04.175Z,16.16
2022-09-15T15:42:34.484Z,15.96
2022-09-15T15:45:04.849Z,15.81
2022-09-15T15:47:35.217Z,15.92
2022-09-15T15:50:13.936Z,15.83
2022-09-15T15:52:35.931Z,15.86
2022-09-15T15:55:06.361Z,15.87
2022-09-15T15:57:36.669Z,15.94
2022-09-15T16:00:06.993Z,16.02
2022-09-15T16:02:37.408Z,16.00
2022-09-15T16:05:07.728Z,15.96
2022-09-15T16:07:38.117Z,16.01
2022-09-15T16:10:08.520Z,15.95
2022-09-15T16:12:38.835Z,15.98
2022-09-15T16:15:09.279Z,15.84
2022-09-15T16:17:44.344Z,15.95
2022-09-15T16:20:09.928Z,15.77
2022-09-15T16:22:40.248Z,15.82
2022-09-15T16:25:10.574Z,15.83
2022-09-15T16:27:40.984Z,15.93
2022-09-15T16:30:11.305Z,15.83
2022-09-15T16:32:41.697Z,15.74
2022-09-15T16:35:12.079Z,15.75
2022-09-15T16:37:42.390Z,15.81
2022-09-15T16:40:12.894Z,15.64
2022-09-15T16:42:43.156Z,15.73
2022-09-15T16:45:13.438Z,15.34
2022-09-15T16:47:43.866Z,15.48
2022-09-15T16:50:14.340Z,15.60
2022-09-15T16:52:44.625Z,15.61
2022-09-15T16:55:15.017Z,15.52
2022-09-15T16:57:45.397Z,15.65
2022-09-15T17:00:15.762Z,15.31
2022-09-15T17:02:46.172Z,15.52
2022-09-15T17:05:16.581Z,15.40
2022-09-15T17:07:46.938Z,15.26
2022-09-15T17:10:17.332Z,15.00
2022-09-15T17:12:47.741Z,15.07
2022-09-15T17:15:18.130Z,15.14
2022-09-15T17:17:48.557Z,15.13
2022-09-15T17:20:18.916Z,15.07
2022-09-15T17:22:49.346Z,15.02
2022-09-15T17:25:19.746Z,14.99
2022-09-15T17:27:50.166Z,14.99
2022-09-15T17:30:20.543Z,15.05
2022-09-15T17:32:50.988Z,15.11
2022-09-15T17:35:21.492Z,15.13
2022-09-15T17:37:51.769Z,15.02
2022-09-15T17:40:22.308Z,14.94
2022-09-15T17:42:52.572Z,14.98
2022-09-15T17:45:22.954Z,14.95
2022-09-15T17:47:53.403Z,14.99
2022-09-15T17:50:23.874Z,14.90
2022-09-15T17:52:54.201Z,14.96
2022-09-15T17:55:24.578Z,15.00
2022-09-15T17:57:55.017Z,14.93
2022-09-15T18:00:25.395Z,14.95
2022-09-15T18:02:55.925Z,14.95
2022-09-15T18:05:26.330Z,14.87
2022-09-15T18:07:56.650Z,14.92
2022-09-15T18:10:27.049Z,14.93
2022-09-15T18:12:57.482Z,14.85
2022-09-15T18:15:27.916Z,14.87
2022-09-15T18:17:58.325Z,14.85
2022-09-15T18:20:28.795Z,14.89
2022-09-15T18:22:59.133Z,14.92
2022-09-15T18:25:29.511Z,14.84
2022-09-15T18:27:59.965Z,14.80
2022-09-15T18:30:30.403Z,14.82
2022-09-15T18:33:00.800Z,14.79
2022-09-15T18:35:31.174Z,14.71
2022-09-15T18:38:01.632Z,14.63
2022-09-15T18:40:32.112Z,14.60
2022-09-15T18:43:02.467Z,14.59
2022-09-15T18:45:32.953Z,14.57
2022-09-15T18:48:03.304Z,14.49
2022-09-15T18:50:33.688Z,14.45
2022-09-15T18:53:04.115Z,14.45
2022-09-15T18:55:34.567Z,14.41
2022-09-15T18:58:04.943Z,14.38
2022-09-15T19:00:35.418Z,14.31
2022-09-15T19:03:05.794Z,14.35
2022-09-15T19:05:36.282Z,14.25
2022-09-15T19:08:06.606Z,14.23
2022-09-15T19:10:37.023Z,14.18
2022-09-15T19:13:07.476Z,14.19
2022-09-15T19:15:37.896Z,14.19
2022-09-15T19:18:08.359Z,14.06
2022-09-15T19:20:38.832Z,14.01
2022-09-15T19:23:09.248Z,14.05
2022-09-15T19:25:39.628Z,14.09
2022-09-15T19:28:10.078Z,14.06
2022-09-15T19:30:40.511Z,14.11
2022-09-15T19:33:10.967Z,14.15
2022-09-15T19:35:41.346Z,14.14
2022-09-15T19:38:11.805Z,14.03
2022-09-15T19:40:42.247Z,14.08
2022-09-15T19:43:12.682Z,14.06
2022-09-15T19:45:43.269Z,14.02
2022-09-15T19:48:13.603Z,14.01
2022-09-15T19:50:43.979Z,13.99
2022-09-15T19:53:14.429Z,13.99
2022-09-15T19:55:44.912Z,13.87
2022-09-15T19:58:15.312Z,13.68
2022-09-15T20:00:45.793Z,13.68
2022-09-15T20:03:16.245Z,13.64
2022-09-15T20:05:46.737Z,13.66
2022-09-15T20:08:17.126Z,13.68
2022-09-15T20:10:47.603Z,13.68
2022-09-15T20:13:18.126Z,13.67
2022-09-15T20:15:48.550Z,13.63
2022-09-15T20:18:18.931Z,13.67
2022-09-15T20:20:49.411Z,13.66
2022-09-15T20:23:19.836Z,13.72
2022-09-15T20:25:50.333Z,13.61
2022-09-15T20:28:20.741Z,13.53
2022-09-15T20:30:51.374Z,13.51
2022-09-15T20:33:21.673Z,13.46
2022-09-15T20:35:52.130Z,13.51
2022-09-15T20:38:22.557Z,13.61
2022-09-15T20:40:53.115Z,13.62
2022-09-15T20:43:23.457Z,13.65
2022-09-15T20:45:53.976Z,13.61
2022-09-15T20:48:24.338Z,13.68
2022-09-15T20:50:54.810Z,13.68
2022-09-15T20:53:25.220Z,13.67
2022-09-15T20:55:55.695Z,13.63
2022-09-15T20:58:26.122Z,13.49
2022-09-15T21:00:56.639Z,13.35
2022-09-15T21:03:27.029Z,13.44
2022-09-15T21:05:57.511Z,13.39
2022-09-15T21:08:27.954Z,13.34
2022-09-15T21:10:58.431Z,13.42
2022-09-15T21:13:28.866Z,13.30
2022-09-15T21:15:59.368Z,13.37
2022-09-15T21:18:29.801Z,13.42
2022-09-15T21:21:00.357Z,13.43
2022-09-15T21:23:30.723Z,13.51
2022-09-15T21:26:01.906Z,13.49
2022-09-15T21:28:31.642Z,13.52
2022-09-15T21:31:02.259Z,13.50
2022-09-15T21:33:32.527Z,13.45
2022-09-15T21:36:02.996Z,13.38
2022-09-15T21:38:33.438Z,13.41
2022-09-15T21:41:03.898Z,13.38
2022-09-15T21:43:34.325Z,13.36
2022-09-15T21:46:04.946Z,13.42
2022-09-15T21:48:35.228Z,13.31
2022-09-15T21:51:05.788Z,13.32
2022-09-15T21:53:36.126Z,13.33
2022-09-15T21:56:06.654Z,13.26
2022-09-15T21:58:42.385Z,13.27
2022-09-15T22:01:07.613Z,13.30
2022-09-15T22:03:37.974Z,13.31
2022-09-15T22:06:08.562Z,13.33
2022-09-15T22:08:38.884Z,13.34
2022-09-15T22:11:09.370Z,13.33
2022-09-15T22:13:39.788Z,13.34
2022-09-15T22:16:10.328Z,13.37
2022-09-15T22:18:40.700Z,13.41
2022-09-15T22:21:11.161Z,13.39
2022-09-15T22:23:41.572Z,13.21
2022-09-15T22:26:12.085Z,13.21
2022-09-15T22:28:42.461Z,13.21
2022-09-15T22:31:12.994Z,13.26
2022-09-15T22:33:43.348Z,13.27
2022-09-15T22:36:13.901Z,13.34
2022-09-15T22:38:44.379Z,13.30
2022-09-15T22:41:14.672Z,13.17
2022-09-15T22:43:45.121Z,13.20
2022-09-15T22:46:15.668Z,13.19
2022-09-15T22:48:45.993Z,13.18
2022-09-15T22:51:16.477Z,13.16
2022-09-15T22:53:46.934Z,13.22
2022-09-15T22:56:17.352Z,13.28
2022-09-15T22:58:47.780Z,13.23
2022-09-15T23:01:18.323Z,13.20
2022-09-15T23:03:48.640Z,13.17
2022-09-15T23:06:19.112Z,13.21
2022-09-15T23:08:49.535Z,13.20
2022-09-15T23:11:20.074Z,13.12
2022-09-15T23:13:50.402Z,13.02
2022-09-15T23:16:21.051Z,13.06
2022-09-15T23:18:51.307Z,12.93
2022-09-15T23:21:21.884Z,12.98
2022-09-15T23:23:52.332Z,12.99
2022-09-15T23:26:22.847Z,13.02
2022-09-15T23:28:53.220Z,13.03
2022-09-15T23:31:23.799Z,13.06
2022-09-15T23:33:54.177Z,12.98
2022-09-15T23:36:24.673Z,12.96
2022-09-15T23:38:55.219Z,13.02
2022-09-15T23:41:25.628Z,13.08
2022-09-15T23:43:56.124Z,13.07
2022-09-15T23:46:26.566Z,12.91
2022-09-15T23:48:56.939Z,13.01
2022-09-15T23:51:27.425Z,12.82
2022-09-15T23:53:57.866Z,12.81
2022-09-15T23:56:28.472Z,12.80
2022-09-15T23:58:58.844Z,12.80
